Terminal Aerodrome Forecast
Issued by NWS

Home | Current Version | Previous Version | Text Only | Print | Product List | Glossary On
Versions: 1 2 3 4 5 6 7 8 9 10 11 12 13 14 15 16 17 18 19 20 21 22 23 24 25 26 27 28 29 30 31 32 33 34 35 36 37
000
FTAK31 PAFA 011136
TAFAQT
TAF
PAQT 011136Z 0112/0212 19009KT P6SM SKC
     FM011700 14006KT P6SM FEW025 SCT060
     FM020000 10010KT P6SM VCSH BKN025 OVC060
     FM020500 10012KT P6SM -SHSN BKN007 OVC025=

USA.gov is the U.S. government's official web portal to all federal, state and local government web resources and services.